sensor_id;sensor_type;location;lat;lon;timestamp;P1;durP1;ratioP1;P2;durP2;ratioP2
68188;SDS011;66299;47.514;19.218;2023-05-21T00:00:59;19.30;;;9.18;;
68188;SDS011;66299;47.514;19.218;2023-05-21T00:03:29;16.73;;;8.93;;
68188;SDS011;66299;47.514;19.218;2023-05-21T00:06:03;18.93;;;9.20;;
68188;SDS011;66299;47.514;19.218;2023-05-21T00:08:36;17.08;;;8.73;;
68188;SDS011;66299;47.514;19.218;2023-05-21T00:11:04;16.58;;;8.88;;
68188;SDS011;66299;47.514;19.218;2023-05-21T00:13:33;16.67;;;9.20;;
68188;SDS011;66299;47.514;19.218;2023-05-21T00:16:02;21.98;;;9.30;;
68188;SDS011;66299;47.514;19.218;2023-05-21T00:18:32;18.65;;;9.50;;
68188;SDS011;66299;47.514;19.218;2023-05-21T00:21:07;17.02;;;9.77;;
68188;SDS011;66299;47.514;19.218;2023-05-21T00:23:40;16.30;;;9.10;;
68188;SDS011;66299;47.514;19.218;2023-05-21T00:26:09;18.50;;;9.10;;
68188;SDS011;66299;47.514;19.218;2023-05-21T00:28:42;16.90;;;9.20;;
68188;SDS011;66299;47.514;19.218;2023-05-21T00:31:15;15.30;;;8.98;;
68188;SDS011;66299;47.514;19.218;2023-05-21T00:33:45;16.52;;;8.95;;
68188;SDS011;66299;47.514;19.218;2023-05-21T00:36:16;16.20;;;9.13;;
68188;SDS011;66299;47.514;19.218;2023-05-21T00:38:51;19.17;;;9.35;;
68188;SDS011;66299;47.514;19.218;2023-05-21T00:41:20;18.95;;;9.23;;
68188;SDS011;66299;47.514;19.218;2023-05-21T00:43:51;15.87;;;9.27;;
68188;SDS011;66299;47.514;19.218;2023-05-21T00:46:20;17.63;;;9.45;;
68188;SDS011;66299;47.514;19.218;2023-05-21T00:48:50;15.23;;;8.90;;
68188;SDS011;66299;47.514;19.218;2023-05-21T00:51:19;15.95;;;8.75;;
68188;SDS011;66299;47.514;19.218;2023-05-21T00:53:53;15.63;;;8.80;;
68188;SDS011;66299;47.514;19.218;2023-05-21T00:56:31;16.45;;;9.57;;
68188;SDS011;66299;47.514;19.218;2023-05-21T00:59:02;17.35;;;8.90;;
68188;SDS011;66299;47.514;19.218;2023-05-21T01:01:32;16.38;;;9.55;;
68188;SDS011;66299;47.514;19.218;2023-05-21T01:04:03;15.93;;;9.18;;
68188;SDS011;66299;47.514;19.218;2023-05-21T01:06:31;17.75;;;9.40;;
68188;SDS011;66299;47.514;19.218;2023-05-21T01:09:03;16.17;;;9.30;;
68188;SDS011;66299;47.514;19.218;2023-05-21T01:11:39;16.35;;;9.38;;
68188;SDS011;66299;47.514;19.218;2023-05-21T01:14:09;16.42;;;9.00;;
68188;SDS011;66299;47.514;19.218;2023-05-21T01:16:41;19.25;;;9.40;;
68188;SDS011;66299;47.514;19.218;2023-05-21T01:19:12;15.32;;;9.45;;
68188;SDS011;66299;47.514;19.218;2023-05-21T01:21:46;15.35;;;9.10;;
68188;SDS011;66299;47.514;19.218;2023-05-21T01:24:20;17.95;;;9.27;;
68188;SDS011;66299;47.514;19.218;2023-05-21T01:26:50;17.15;;;9.60;;
68188;SDS011;66299;47.514;19.218;2023-05-21T01:29:18;19.10;;;9.52;;
68188;SDS011;66299;47.514;19.218;2023-05-21T01:31:51;16.75;;;8.93;;
68188;SDS011;66299;47.514;19.218;2023-05-21T01:34:28;15.80;;;9.02;;
68188;SDS011;66299;47.514;19.218;2023-05-21T01:37:03;17.17;;;9.73;;
68188;SDS011;66299;47.514;19.218;2023-05-21T01:39:41;19.83;;;9.65;;
68188;SDS011;66299;47.514;19.218;2023-05-21T01:42:16;18.95;;;9.68;;
68188;SDS011;66299;47.514;19.218;2023-05-21T01:44:46;18.42;;;9.32;;
68188;SDS011;66299;47.514;19.218;2023-05-21T01:47:24;16.90;;;9.10;;
68188;SDS011;66299;47.514;19.218;2023-05-21T01:49:54;16.63;;;8.90;;
68188;SDS011;66299;47.514;19.218;2023-05-21T01:52:26;15.70;;;9.20;;
68188;SDS011;66299;47.514;19.218;2023-05-21T01:54:57;17.30;;;8.98;;
68188;SDS011;66299;47.514;19.218;2023-05-21T01:57:27;19.25;;;9.57;;
68188;SDS011;66299;47.514;19.218;2023-05-21T01:59:55;23.65;;;9.30;;
68188;SDS011;66299;47.514;19.218;2023-05-21T02:02:27;15.77;;;9.02;;
68188;SDS011;66299;47.514;19.218;2023-05-21T02:04:57;15.77;;;8.98;;
68188;SDS011;66299;47.514;19.218;2023-05-21T02:07:25;17.15;;;8.90;;
68188;SDS011;66299;47.514;19.218;2023-05-21T02:09:55;16.00;;;9.00;;
68188;SDS011;66299;47.514;19.218;2023-05-21T02:12:26;17.75;;;9.02;;
68188;SDS011;66299;47.514;19.218;2023-05-21T02:14:55;16.98;;;8.73;;
68188;SDS011;66299;47.514;19.218;2023-05-21T02:17:24;16.05;;;8.95;;
68188;SDS011;66299;47.514;19.218;2023-05-21T02:19:57;15.32;;;8.75;;
68188;SDS011;66299;47.514;19.218;2023-05-21T02:22:36;16.45;;;8.90;;
68188;SDS011;66299;47.514;19.218;2023-05-21T02:25:07;16.27;;;8.77;;
68188;SDS011;66299;47.514;19.218;2023-05-21T02:27:37;15.35;;;8.60;;
68188;SDS011;66299;47.514;19.218;2023-05-21T02:30:14;19.38;;;8.43;;
68188;SDS011;66299;47.514;19.218;2023-05-21T02:32:43;16.58;;;8.48;;
68188;SDS011;66299;47.514;19.218;2023-05-21T02:35:14;16.13;;;8.55;;
68188;SDS011;66299;47.514;19.218;2023-05-21T02:37:43;15.07;;;8.70;;
68188;SDS011;66299;47.514;19.218;2023-05-21T02:40:13;17.00;;;8.48;;
68188;SDS011;66299;47.514;19.218;2023-05-21T02:42:45;19.55;;;8.93;;
68188;SDS011;66299;47.514;19.218;2023-05-21T02:45:15;15.07;;;8.80;;
68188;SDS011;66299;47.514;19.218;2023-05-21T02:47:47;19.20;;;8.80;;
68188;SDS011;66299;47.514;19.218;2023-05-21T02:50:16;15.50;;;8.40;;
68188;SDS011;66299;47.514;19.218;2023-05-21T02:52:46;15.75;;;8.32;;
68188;SDS011;66299;47.514;19.218;2023-05-21T02:55:18;16.33;;;8.85;;
68188;SDS011;66299;47.514;19.218;2023-05-21T02:57:47;14.52;;;8.65;;
68188;SDS011;66299;47.514;19.218;2023-05-21T03:00:15;14.93;;;8.40;;
68188;SDS011;66299;47.514;19.218;2023-05-21T03:02:45;20.25;;;8.85;;
68188;SDS011;66299;47.514;19.218;2023-05-21T03:05:15;14.40;;;8.05;;
68188;SDS011;66299;47.514;19.218;2023-05-21T03:07:43;17.92;;;8.57;;
68188;SDS011;66299;47.514;19.218;2023-05-21T03:10:14;12.75;;;7.70;;
68188;SDS011;66299;47.514;19.218;2023-05-21T03:12:48;18.70;;;8.40;;
68188;SDS011;66299;47.514;19.218;2023-05-21T03:15:18;13.63;;;7.70;;
68188;SDS011;66299;47.514;19.218;2023-05-21T03:17:50;16.00;;;7.97;;
68188;SDS011;66299;47.514;19.218;2023-05-21T03:20:20;17.98;;;8.25;;
68188;SDS011;66299;47.514;19.218;2023-05-21T03:22:51;17.80;;;8.07;;
68188;SDS011;66299;47.514;19.218;2023-05-21T03:25:22;15.18;;;8.02;;
68188;SDS011;66299;47.514;19.218;2023-05-21T03:27:51;14.05;;;7.78;;
68188;SDS011;66299;47.514;19.218;2023-05-21T03:30:19;13.80;;;7.82;;
68188;SDS011;66299;47.514;19.218;2023-05-21T03:32:48;13.73;;;7.68;;
68188;SDS011;66299;47.514;19.218;2023-05-21T03:35:17;17.23;;;7.53;;
68188;SDS011;66299;47.514;19.218;2023-05-21T03:37:53;13.95;;;7.40;;
68188;SDS011;66299;47.514;19.218;2023-05-21T03:40:26;17.25;;;7.85;;
68188;SDS011;66299;47.514;19.218;2023-05-21T03:42:56;14.55;;;7.70;;
68188;SDS011;66299;47.514;19.218;2023-05-21T03:45:25;15.73;;;7.30;;
68188;SDS011;66299;47.514;19.218;2023-05-21T03:47:54;16.15;;;7.47;;
68188;SDS011;66299;47.514;19.218;2023-05-21T03:50:27;14.77;;;7.20;;
68188;SDS011;66299;47.514;19.218;2023-05-21T03:53:01;17.40;;;6.90;;
68188;SDS011;66299;47.514;19.218;2023-05-21T03:58:02;13.43;;;7.40;;
68188;SDS011;66299;47.514;19.218;2023-05-21T04:00:31;12.95;;;7.10;;
68188;SDS011;66299;47.514;19.218;2023-05-21T04:03:03;15.77;;;6.82;;
68188;SDS011;66299;47.514;19.218;2023-05-21T04:05:34;13.55;;;7.00;;
68188;SDS011;66299;47.514;19.218;2023-05-21T04:08:04;13.50;;;7.25;;
68188;SDS011;66299;47.514;19.218;2023-05-21T04:10:40;12.93;;;6.80;;
68188;SDS011;66299;47.514;19.218;2023-05-21T04:13:12;13.52;;;6.88;;
68188;SDS011;66299;47.514;19.218;2023-05-21T04:15:51;13.05;;;6.30;;
68188;SDS011;66299;47.514;19.218;2023-05-21T04:18:26;13.00;;;6.47;;
68188;SDS011;66299;47.514;19.218;2023-05-21T04:20:55;14.23;;;6.47;;
68188;SDS011;66299;47.514;19.218;2023-05-21T04:25:58;12.23;;;6.45;;
68188;SDS011;66299;47.514;19.218;2023-05-21T04:28:27;14.77;;;6.57;;
68188;SDS011;66299;47.514;19.218;2023-05-21T04:30:58;14.88;;;6.47;;
68188;SDS011;66299;47.514;19.218;2023-05-21T04:33:26;16.02;;;6.40;;
68188;SDS011;66299;47.514;19.218;2023-05-21T04:35:56;13.45;;;6.50;;
68188;SDS011;66299;47.514;19.218;2023-05-21T04:38:26;13.93;;;6.20;;
68188;SDS011;66299;47.514;19.218;2023-05-21T04:41:07;14.68;;;6.60;;
68188;SDS011;66299;47.514;19.218;2023-05-21T04:43:37;13.68;;;6.40;;
68188;SDS011;66299;47.514;19.218;2023-05-21T04:46:09;15.13;;;6.65;;
68188;SDS011;66299;47.514;19.218;2023-05-21T04:48:38;14.02;;;6.85;;
68188;SDS011;66299;47.514;19.218;2023-05-21T04:51:08;13.60;;;6.57;;
68188;SDS011;66299;47.514;19.218;2023-05-21T04:53:36;13.10;;;6.70;;
68188;SDS011;66299;47.514;19.218;2023-05-21T04:56:10;11.80;;;6.60;;
68188;SDS011;66299;47.514;19.218;2023-05-21T04:58:39;14.32;;;6.85;;
68188;SDS011;66299;47.514;19.218;2023-05-21T05:01:10;14.10;;;6.23;;
68188;SDS011;66299;47.514;19.218;2023-05-21T05:03:39;12.77;;;6.57;;
68188;SDS011;66299;47.514;19.218;2023-05-21T05:06:07;12.90;;;6.28;;
68188;SDS011;66299;47.514;19.218;2023-05-21T05:08:36;12.63;;;6.07;;
68188;SDS011;66299;47.514;19.218;2023-05-21T05:11:05;14.07;;;6.43;;
68188;SDS011;66299;47.514;19.218;2023-05-21T05:13:35;12.13;;;6.13;;
68188;SDS011;66299;47.514;19.218;2023-05-21T05:16:08;12.82;;;6.05;;
68188;SDS011;66299;47.514;19.218;2023-05-21T05:18:38;15.23;;;6.15;;
68188;SDS011;66299;47.514;19.218;2023-05-21T05:21:07;11.50;;;6.25;;
68188;SDS011;66299;47.514;19.218;2023-05-21T05:23:36;16.42;;;6.18;;
68188;SDS011;66299;47.514;19.218;2023-05-21T05:26:09;14.77;;;6.15;;
68188;SDS011;66299;47.514;19.218;2023-05-21T05:28:41;14.25;;;5.95;;
68188;SDS011;66299;47.514;19.218;2023-05-21T05:31:12;13.48;;;6.00;;
68188;SDS011;66299;47.514;19.218;2023-05-21T05:33:41;12.45;;;6.00;;
68188;SDS011;66299;47.514;19.218;2023-05-21T05:36:14;12.73;;;6.40;;
68188;SDS011;66299;47.514;19.218;2023-05-21T05:38:43;14.02;;;6.20;;
68188;SDS011;66299;47.514;19.218;2023-05-21T05:41:14;11.57;;;5.72;;
68188;SDS011;66299;47.514;19.218;2023-05-21T05:43:46;13.95;;;6.05;;
68188;SDS011;66299;47.514;19.218;2023-05-21T05:46:14;13.73;;;6.10;;
68188;SDS011;66299;47.514;19.218;2023-05-21T05:48:43;11.50;;;6.25;;
68188;SDS011;66299;47.514;19.218;2023-05-21T05:51:12;11.93;;;6.20;;
68188;SDS011;66299;47.514;19.218;2023-05-21T05:53:44;15.52;;;6.38;;
68188;SDS011;66299;47.514;19.218;2023-05-21T05:56:12;14.40;;;6.38;;
68188;SDS011;66299;47.514;19.218;2023-05-21T05:58:42;13.85;;;6.15;;
68188;SDS011;66299;47.514;19.218;2023-05-21T06:01:12;13.43;;;6.20;;
68188;SDS011;66299;47.514;19.218;2023-05-21T06:03:42;15.45;;;6.32;;
68188;SDS011;66299;47.514;19.218;2023-05-21T06:06:13;17.33;;;6.03;;
68188;SDS011;66299;47.514;19.218;2023-05-21T06:08:43;14.13;;;6.00;;
68188;SDS011;66299;47.514;19.218;2023-05-21T06:11:12;14.95;;;5.82;;
68188;SDS011;66299;47.514;19.218;2023-05-21T06:13:46;14.65;;;6.50;;
68188;SDS011;66299;47.514;19.218;2023-05-21T06:16:16;12.48;;;5.68;;
68188;SDS011;66299;47.514;19.218;2023-05-21T06:18:46;15.38;;;6.10;;
68188;SDS011;66299;47.514;19.218;2023-05-21T06:21:16;11.60;;;5.65;;
68188;SDS011;66299;47.514;19.218;2023-05-21T06:23:45;14.25;;;5.70;;
68188;SDS011;66299;47.514;19.218;2023-05-21T06:26:13;15.35;;;5.40;;
68188;SDS011;66299;47.514;19.218;2023-05-21T06:28:42;16.42;;;5.97;;
68188;SDS011;66299;47.514;19.218;2023-05-21T06:31:16;12.02;;;5.30;;
68188;SDS011;66299;47.514;19.218;2023-05-21T06:33:44;15.55;;;5.85;;
68188;SDS011;66299;47.514;19.218;2023-05-21T06:36:15;14.88;;;5.68;;
68188;SDS011;66299;47.514;19.218;2023-05-21T06:38:44;16.60;;;5.70;;
68188;SDS011;66299;47.514;19.218;2023-05-21T06:41:15;14.40;;;5.72;;
68188;SDS011;66299;47.514;19.218;2023-05-21T06:43:47;13.55;;;5.57;;
68188;SDS011;66299;47.514;19.218;2023-05-21T06:46:17;13.48;;;5.40;;
68188;SDS011;66299;47.514;19.218;2023-05-21T06:48:45;11.93;;;5.47;;
68188;SDS011;66299;47.514;19.218;2023-05-21T06:51:14;14.77;;;5.90;;
68188;SDS011;66299;47.514;19.218;2023-05-21T06:53:42;12.93;;;5.55;;
68188;SDS011;66299;47.514;19.218;2023-05-21T06:56:11;12.65;;;5.88;;
68188;SDS011;66299;47.514;19.218;2023-05-21T06:58:40;13.15;;;5.50;;
68188;SDS011;66299;47.514;19.218;2023-05-21T07:01:09;11.15;;;5.65;;
68188;SDS011;66299;47.514;19.218;2023-05-21T07:03:46;14.57;;;5.70;;
68188;SDS011;66299;47.514;19.218;2023-05-21T07:06:14;18.75;;;5.68;;
68188;SDS011;66299;47.514;19.218;2023-05-21T07:08:47;11.15;;;5.60;;
68188;SDS011;66299;47.514;19.218;2023-05-21T07:11:17;11.15;;;5.00;;
68188;SDS011;66299;47.514;19.218;2023-05-21T07:13:48;10.55;;;5.20;;
68188;SDS011;66299;47.514;19.218;2023-05-21T07:16:22;11.95;;;5.40;;
68188;SDS011;66299;47.514;19.218;2023-05-21T07:18:58;11.63;;;5.60;;
68188;SDS011;66299;47.514;19.218;2023-05-21T07:21:28;13.18;;;5.35;;
68188;SDS011;66299;47.514;19.218;2023-05-21T07:23:57;11.35;;;5.18;;
68188;SDS011;66299;47.514;19.218;2023-05-21T07:26:25;13.32;;;5.70;;
68188;SDS011;66299;47.514;19.218;2023-05-21T07:28:54;14.90;;;5.32;;
68188;SDS011;66299;47.514;19.218;2023-05-21T07:31:23;12.95;;;5.28;;
68188;SDS011;66299;47.514;19.218;2023-05-21T07:33:53;12.40;;;5.38;;
68188;SDS011;66299;47.514;19.218;2023-05-21T07:36:23;11.85;;;5.40;;
68188;SDS011;66299;47.514;19.218;2023-05-21T07:38:53;13.23;;;5.32;;
68188;SDS011;66299;47.514;19.218;2023-05-21T07:41:23;14.90;;;5.50;;
68188;SDS011;66299;47.514;19.218;2023-05-21T07:43:57;12.75;;;5.38;;
68188;SDS011;66299;47.514;19.218;2023-05-21T07:46:29;11.18;;;5.00;;
68188;SDS011;66299;47.514;19.218;2023-05-21T07:48:57;12.07;;;5.50;;
68188;SDS011;66299;47.514;19.218;2023-05-21T07:51:30;11.65;;;5.50;;
68188;SDS011;66299;47.514;19.218;2023-05-21T07:53:59;11.68;;;5.35;;
68188;SDS011;66299;47.514;19.218;2023-05-21T07:56:28;13.13;;;5.90;;
68188;SDS011;66299;47.514;19.218;2023-05-21T07:58:58;11.45;;;5.10;;
68188;SDS011;66299;47.514;19.218;2023-05-21T08:01:27;12.32;;;4.88;;
68188;SDS011;66299;47.514;19.218;2023-05-21T08:03:56;13.52;;;5.38;;
68188;SDS011;66299;47.514;19.218;2023-05-21T08:06:27;11.57;;;5.30;;
68188;SDS011;66299;47.514;19.218;2023-05-21T08:09:00;11.68;;;5.15;;
68188;SDS011;66299;47.514;19.218;2023-05-21T08:11:29;15.02;;;5.43;;
68188;SDS011;66299;47.514;19.218;2023-05-21T08:13:57;12.82;;;5.25;;
68188;SDS011;66299;47.514;19.218;2023-05-21T08:16:26;13.25;;;5.03;;
68188;SDS011;66299;47.514;19.218;2023-05-21T08:18:54;10.48;;;5.10;;
68188;SDS011;66299;47.514;19.218;2023-05-21T08:21:24;12.32;;;5.20;;
68188;SDS011;66299;47.514;19.218;2023-05-21T08:23:58;12.85;;;4.90;;
68188;SDS011;66299;47.514;19.218;2023-05-21T08:26:26;15.95;;;5.35;;
68188;SDS011;66299;47.514;19.218;2023-05-21T08:28:57;11.38;;;4.90;;
68188;SDS011;66299;47.514;19.218;2023-05-21T08:31:30;11.50;;;4.85;;
68188;SDS011;66299;47.514;19.218;2023-05-21T08:33:58;12.77;;;4.65;;
68188;SDS011;66299;47.514;19.218;2023-05-21T08:36:27;13.48;;;4.70;;
68188;SDS011;66299;47.514;19.218;2023-05-21T08:39:03;12.13;;;5.55;;
68188;SDS011;66299;47.514;19.218;2023-05-21T08:41:32;14.90;;;5.53;;
68188;SDS011;66299;47.514;19.218;2023-05-21T08:44:03;11.65;;;4.75;;
68188;SDS011;66299;47.514;19.218;2023-05-21T08:46:40;10.73;;;4.75;;
68188;SDS011;66299;47.514;19.218;2023-05-21T08:49:13;9.80;;;4.70;;
68188;SDS011;66299;47.514;19.218;2023-05-21T08:51:44;11.77;;;4.65;;
68188;SDS011;66299;47.514;19.218;2023-05-21T08:54:17;10.73;;;4.70;;
68188;SDS011;66299;47.514;19.218;2023-05-21T08:56:47;14.93;;;4.47;;
68188;SDS011;66299;47.514;19.218;2023-05-21T08:59:18;9.98;;;4.70;;
68188;SDS011;66299;47.514;19.218;2023-05-21T09:01:49;10.45;;;4.43;;
68188;SDS011;66299;47.514;19.218;2023-05-21T09:04:19;13.50;;;4.78;;
68188;SDS011;66299;47.514;19.218;2023-05-21T09:06:49;10.18;;;4.45;;
68188;SDS011;66299;47.514;19.218;2023-05-21T09:09:24;14.15;;;4.68;;
68188;SDS011;66299;47.514;19.218;2023-05-21T09:12:02;13.95;;;4.65;;
68188;SDS011;66299;47.514;19.218;2023-05-21T09:14:31;10.23;;;4.47;;
68188;SDS011;66299;47.514;19.218;2023-05-21T09:17:05;12.93;;;4.43;;
68188;SDS011;66299;47.514;19.218;2023-05-21T09:19:35;12.95;;;4.47;;
68188;SDS011;66299;47.514;19.218;2023-05-21T09:22:08;11.88;;;5.20;;
68188;SDS011;66299;47.514;19.218;2023-05-21T09:24:39;11.77;;;4.78;;
68188;SDS011;66299;47.514;19.218;2023-05-21T09:27:10;12.82;;;4.30;;
68188;SDS011;66299;47.514;19.218;2023-05-21T09:29:40;11.32;;;4.65;;
68188;SDS011;66299;47.514;19.218;2023-05-21T09:32:12;13.90;;;4.47;;
68188;SDS011;66299;47.514;19.218;2023-05-21T09:34:41;15.98;;;4.43;;
68188;SDS011;66299;47.514;19.218;2023-05-21T09:37:16;13.30;;;5.70;;
68188;SDS011;66299;47.514;19.218;2023-05-21T09:39:57;16.33;;;6.03;;
68188;SDS011;66299;47.514;19.218;2023-05-21T09:42:26;14.52;;;5.20;;
68188;SDS011;66299;47.514;19.218;2023-05-21T09:44:57;11.15;;;4.78;;
68188;SDS011;66299;47.514;19.218;2023-05-21T09:47:26;10.57;;;4.78;;
68188;SDS011;66299;47.514;19.218;2023-05-21T09:49:56;12.05;;;4.25;;
68188;SDS011;66299;47.514;19.218;2023-05-21T09:52:33;9.85;;;4.43;;
68188;SDS011;66299;47.514;19.218;2023-05-21T09:55:10;14.90;;;4.72;;
68188;SDS011;66299;47.514;19.218;2023-05-21T09:57:42;13.20;;;4.55;;
68188;SDS011;66299;47.514;19.218;2023-05-21T10:00:18;15.70;;;4.35;;
68188;SDS011;66299;47.514;19.218;2023-05-21T10:02:48;14.20;;;4.32;;
68188;SDS011;66299;47.514;19.218;2023-05-21T10:05:22;12.38;;;4.57;;
68188;SDS011;66299;47.514;19.218;2023-05-21T10:07:55;14.70;;;4.35;;
68188;SDS011;66299;47.514;19.218;2023-05-21T10:10:29;13.13;;;4.50;;
68188;SDS011;66299;47.514;19.218;2023-05-21T10:13:00;12.13;;;4.30;;
68188;SDS011;66299;47.514;19.218;2023-05-21T10:15:34;13.00;;;4.13;;
68188;SDS011;66299;47.514;19.218;2023-05-21T10:18:05;10.35;;;4.10;;
68188;SDS011;66299;47.514;19.218;2023-05-21T10:20:38;12.88;;;4.05;;
68188;SDS011;66299;47.514;19.218;2023-05-21T10:23:08;10.02;;;4.00;;
68188;SDS011;66299;47.514;19.218;2023-05-21T10:25:40;10.45;;;4.30;;
68188;SDS011;66299;47.514;19.218;2023-05-21T10:28:10;9.35;;;4.20;;
68188;SDS011;66299;47.514;19.218;2023-05-21T10:30:43;15.68;;;4.22;;
68188;SDS011;66299;47.514;19.218;2023-05-21T10:33:14;9.65;;;4.38;;
68188;SDS011;66299;47.514;19.218;2023-05-21T10:35:44;13.02;;;4.25;;
68188;SDS011;66299;47.514;19.218;2023-05-21T10:38:26;14.45;;;4.72;;
68188;SDS011;66299;47.514;19.218;2023-05-21T10:41:16;11.40;;;4.15;;
68188;SDS011;66299;47.514;19.218;2023-05-21T10:43:55;11.38;;;4.55;;
68188;SDS011;66299;47.514;19.218;2023-05-21T10:46:40;10.63;;;4.20;;
68188;SDS011;66299;47.514;19.218;2023-05-21T10:49:44;13.32;;;3.85;;
68188;SDS011;66299;47.514;19.218;2023-05-21T10:52:24;9.88;;;4.05;;
68188;SDS011;66299;47.514;19.218;2023-05-21T10:55:06;11.38;;;4.20;;
68188;SDS011;66299;47.514;19.218;2023-05-21T10:57:57;11.30;;;4.00;;
68188;SDS011;66299;47.514;19.218;2023-05-21T11:00:41;10.55;;;4.18;;
68188;SDS011;66299;47.514;19.218;2023-05-21T11:03:13;14.10;;;4.45;;
68188;SDS011;66299;47.514;19.218;2023-05-21T11:05:49;10.82;;;4.32;;
68188;SDS011;66299;47.514;19.218;2023-05-21T11:08:21;10.63;;;4.05;;
68188;SDS011;66299;47.514;19.218;2023-05-21T11:10:50;9.65;;;4.20;;
68188;SDS011;66299;47.514;19.218;2023-05-21T11:13:27;12.85;;;4.07;;
68188;SDS011;66299;47.514;19.218;2023-05-21T11:16:12;11.23;;;4.30;;
68188;SDS011;66299;47.514;19.218;2023-05-21T11:19:00;13.10;;;4.15;;
68188;SDS011;66299;47.514;19.218;2023-05-21T11:21:30;11.23;;;4.50;;
68188;SDS011;66299;47.514;19.218;2023-05-21T11:24:04;15.45;;;4.47;;
68188;SDS011;66299;47.514;19.218;2023-05-21T11:29:46;10.63;;;4.30;;
68188;SDS011;66299;47.514;19.218;2023-05-21T11:32:15;10.80;;;4.82;;
68188;SDS011;66299;47.514;19.218;2023-05-21T11:34:49;11.25;;;4.40;;
68188;SDS011;66299;47.514;19.218;2023-05-21T11:37:33;10.38;;;4.43;;
68188;SDS011;66299;47.514;19.218;2023-05-21T11:40:16;10.93;;;4.50;;
68188;SDS011;66299;47.514;19.218;2023-05-21T11:42:53;12.68;;;4.63;;
68188;SDS011;66299;47.514;19.218;2023-05-21T11:45:28;11.80;;;4.50;;
68188;SDS011;66299;47.514;19.218;2023-05-21T11:47:59;11.45;;;4.43;;
68188;SDS011;66299;47.514;19.218;2023-05-21T11:50:29;12.75;;;4.75;;
68188;SDS011;66299;47.514;19.218;2023-05-21T11:52:59;13.05;;;4.50;;
68188;SDS011;66299;47.514;19.218;2023-05-21T11:55:28;17.50;;;4.70;;
68188;SDS011;66299;47.514;19.218;2023-05-21T11:58:02;13.50;;;4.80;;
68188;SDS011;66299;47.514;19.218;2023-05-21T12:00:36;10.65;;;4.80;;
68188;SDS011;66299;47.514;19.218;2023-05-21T12:03:12;13.13;;;4.80;;
68188;SDS011;66299;47.514;19.218;2023-05-21T12:05:45;10.60;;;4.80;;
68188;SDS011;66299;47.514;19.218;2023-05-21T12:08:22;13.52;;;4.85;;
68188;SDS011;66299;47.514;19.218;2023-05-21T12:10:54;12.07;;;4.75;;
68188;SDS011;66299;47.514;19.218;2023-05-21T12:13:26;11.60;;;4.70;;
68188;SDS011;66299;47.514;19.218;2023-05-21T12:15:56;11.45;;;4.78;;
68188;SDS011;66299;47.514;19.218;2023-05-21T12:18:26;13.43;;;4.50;;
68188;SDS011;66299;47.514;19.218;2023-05-21T12:20:55;10.48;;;4.30;;
68188;SDS011;66299;47.514;19.218;2023-05-21T12:23:29;12.70;;;4.68;;
68188;SDS011;66299;47.514;19.218;2023-05-21T12:25:58;12.57;;;4.30;;
68188;SDS011;66299;47.514;19.218;2023-05-21T12:28:28;13.55;;;4.50;;
68188;SDS011;66299;47.514;19.218;2023-05-21T12:31:02;12.82;;;4.40;;
68188;SDS011;66299;47.514;19.218;2023-05-21T12:33:32;15.10;;;4.68;;
68188;SDS011;66299;47.514;19.218;2023-05-21T12:36:02;14.57;;;4.60;;
68188;SDS011;66299;47.514;19.218;2023-05-21T12:38:31;14.57;;;4.57;;
68188;SDS011;66299;47.514;19.218;2023-05-21T12:41:02;11.77;;;4.45;;
68188;SDS011;66299;47.514;19.218;2023-05-21T12:43:34;12.15;;;4.20;;
68188;SDS011;66299;47.514;19.218;2023-05-21T12:46:04;12.10;;;3.97;;
68188;SDS011;66299;47.514;19.218;2023-05-21T12:48:33;9.32;;;4.05;;
68188;SDS011;66299;47.514;19.218;2023-05-21T12:51:03;10.38;;;4.45;;
68188;SDS011;66299;47.514;19.218;2023-05-21T12:53:35;10.75;;;4.50;;
68188;SDS011;66299;47.514;19.218;2023-05-21T12:56:08;14.52;;;4.50;;
68188;SDS011;66299;47.514;19.218;2023-05-21T12:58:38;12.57;;;4.70;;
68188;SDS011;66299;47.514;19.218;2023-05-21T13:01:12;11.65;;;4.60;;
68188;SDS011;66299;47.514;19.218;2023-05-21T13:03:44;10.40;;;4.47;;
68188;SDS011;66299;47.514;19.218;2023-05-21T13:06:16;12.38;;;4.32;;
68188;SDS011;66299;47.514;19.218;2023-05-21T13:08:46;10.15;;;4.55;;
68188;SDS011;66299;47.514;19.218;2023-05-21T13:11:16;10.15;;;4.88;;
68188;SDS011;66299;47.514;19.218;2023-05-21T13:13:46;12.40;;;4.80;;
68188;SDS011;66299;47.514;19.218;2023-05-21T13:16:17;13.20;;;4.78;;
68188;SDS011;66299;47.514;19.218;2023-05-21T13:18:48;10.93;;;4.85;;
68188;SDS011;66299;47.514;19.218;2023-05-21T13:21:19;12.98;;;4.90;;
68188;SDS011;66299;47.514;19.218;2023-05-21T13:23:48;11.40;;;4.50;;
68188;SDS011;66299;47.514;19.218;2023-05-21T13:26:18;10.35;;;4.68;;
68188;SDS011;66299;47.514;19.218;2023-05-21T13:28:48;11.80;;;4.47;;
68188;SDS011;66299;47.514;19.218;2023-05-21T13:31:18;10.45;;;4.68;;
68188;SDS011;66299;47.514;19.218;2023-05-21T13:33:46;10.85;;;4.65;;
68188;SDS011;66299;47.514;19.218;2023-05-21T13:36:14;10.77;;;4.22;;
68188;SDS011;66299;47.514;19.218;2023-05-21T13:38:45;12.70;;;4.90;;
68188;SDS011;66299;47.514;19.218;2023-05-21T13:41:15;11.38;;;4.65;;
68188;SDS011;66299;47.514;19.218;2023-05-21T13:43:43;11.10;;;4.47;;
68188;SDS011;66299;47.514;19.218;2023-05-21T13:46:12;13.75;;;4.57;;
68188;SDS011;66299;47.514;19.218;2023-05-21T13:51:16;10.77;;;4.47;;
68188;SDS011;66299;47.514;19.218;2023-05-21T13:54:05;16.42;;;5.25;;
68188;SDS011;66299;47.514;19.218;2023-05-21T13:56:34;11.40;;;4.72;;
68188;SDS011;66299;47.514;19.218;2023-05-21T13:59:02;9.80;;;4.45;;
68188;SDS011;66299;47.514;19.218;2023-05-21T14:01:31;11.43;;;4.57;;
68188;SDS011;66299;47.514;19.218;2023-05-21T14:04:01;11.15;;;4.55;;
68188;SDS011;66299;47.514;19.218;2023-05-21T14:06:32;12.63;;;4.60;;
68188;SDS011;66299;47.514;19.218;2023-05-21T14:09:03;12.70;;;4.40;;
68188;SDS011;66299;47.514;19.218;2023-05-21T14:11:31;10.57;;;4.68;;
68188;SDS011;66299;47.514;19.218;2023-05-21T14:14:01;9.55;;;4.50;;
68188;SDS011;66299;47.514;19.218;2023-05-21T14:16:31;14.73;;;4.60;;
68188;SDS011;66299;47.514;19.218;2023-05-21T14:19:01;11.30;;;4.50;;
68188;SDS011;66299;47.514;19.218;2023-05-21T14:21:30;15.75;;;4.60;;
68188;SDS011;66299;47.514;19.218;2023-05-21T14:23:59;11.35;;;4.65;;
68188;SDS011;66299;47.514;19.218;2023-05-21T14:26:28;11.07;;;4.50;;
68188;SDS011;66299;47.514;19.218;2023-05-21T14:28:56;12.35;;;4.80;;
68188;SDS011;66299;47.514;19.218;2023-05-21T14:31:26;13.07;;;4.85;;
68188;SDS011;66299;47.514;19.218;2023-05-21T14:33:55;12.40;;;4.80;;
68188;SDS011;66299;47.514;19.218;2023-05-21T14:36:24;10.73;;;4.80;;
68188;SDS011;66299;47.514;19.218;2023-05-21T14:38:54;11.82;;;4.75;;
68188;SDS011;66299;47.514;19.218;2023-05-21T14:41:23;11.50;;;4.90;;
68188;SDS011;66299;47.514;19.218;2023-05-21T14:43:52;11.43;;;4.60;;
68188;SDS011;66299;47.514;19.218;2023-05-21T14:46:20;13.73;;;4.93;;
68188;SDS011;66299;47.514;19.218;2023-05-21T14:48:50;14.68;;;4.80;;
68188;SDS011;66299;47.514;19.218;2023-05-21T14:51:18;14.60;;;4.60;;
68188;SDS011;66299;47.514;19.218;2023-05-21T14:53:48;14.05;;;4.75;;
68188;SDS011;66299;47.514;19.218;2023-05-21T14:56:17;9.65;;;4.30;;